Time;durP1;ratioP1;P1;durP2;ratioP2;P2;SDS_P1;SDS_P2;PMS_P1;PMS_P2;Temp;Humidity;BMP_temperature;BMP_pressure;BME280_temperature;BME280_humidity;BME280_pressure;Samples;Min_cycle;Max_cycle;Signal;HPM_P1;HPM_P2
2021/04/06 00:02:10;;;;;;;16.97;9.65;;;;;;;4.07;55.76;98000.03;1792712;80;21592;-41
2021/04/06 00:04:42;;;;;;;19.52;11.00;;;;;;;4.05;55.86;97998.84;1794134;80;21202;-42
2021/04/06 00:07:13;;;;;;;16.30;10.40;;;;;;;4.05;55.95;98004.20;1792664;80;21166;-42
2021/04/06 00:09:43;;;;;;;17.45;10.20;;;;;;;4.05;56.13;98002.86;1785177;80;21185;-42
2021/04/06 00:12:12;;;;;;;18.12;10.25;;;;;;;4.05;56.08;98002.86;1797922;78;21195;-42
2021/04/06 00:14:40;;;;;;;16.15;9.95;;;;;;;4.06;56.10;98013.81;1794590;80;21188;-42
2021/04/06 00:17:09;;;;;;;14.70;9.65;;;;;;;4.08;56.19;98012.88;1791821;80;21188;-42
2021/04/06 00:19:40;;;;;;;15.00;10.08;;;;;;;4.06;56.12;98009.23;1822489;78;21178;-42
2021/04/06 00:22:09;;;;;;;16.95;10.05;;;;;;;4.08;56.13;98005.62;1794749;80;21171;-42
2021/04/06 00:24:40;;;;;;;14.43;10.23;;;;;;;4.07;56.11;97999.25;1765862;80;22185;-42
2021/04/06 00:27:30;;;;;;;16.05;9.83;;;;;;;4.07;56.11;97997.91;1827205;78;21154;-42
2021/04/06 00:30:08;;;;;;;15.90;10.08;;;;;;;4.07;56.11;97996.57;1794375;80;21027;-42
2021/04/06 00:32:38;;;;;;;18.32;10.20;;;;;;;4.06;56.11;97994.48;1827205;78;21086;-42
2021/04/06 00:35:08;;;;;;;14.35;9.65;;;;;;;4.08;56.09;97988.75;1827393;78;21138;-42
2021/04/06 00:37:48;;;;;;;16.10;10.20;;;;;;;4.10;56.06;97986.50;1794893;80;22111;-42
2021/04/06 00:40:17;;;;;;;14.60;10.05;;;;;;;4.11;56.08;97989.41;1827203;78;21177;-42
2021/04/06 00:42:45;;;;;;;15.10;10.03;;;;;;;4.07;56.05;97985.28;1793072;80;21142;-42
2021/04/06 00:45:17;;;;;;;13.75;9.88;;;;;;;4.09;56.03;97987.63;1827301;78;22210;-42
2021/04/06 00:47:45;;;;;;;16.70;9.90;;;;;;;4.08;55.98;97983.38;1794842;80;21486;-42
2021/04/06 00:50:15;;;;;;;15.50;9.55;;;;;;;4.11;56.06;97981.36;1811652;78;22214;-42
2021/04/06 00:52:45;;;;;;;16.90;10.95;;;;;;;4.10;55.97;97978.45;1794736;80;21537;-42
2021/04/06 00:55:18;;;;;;;14.68;9.45;;;;;;;4.10;55.91;97981.14;1794785;80;21151;-42
2021/04/06 00:57:47;;;;;;;15.90;10.20;;;;;;;4.09;56.00;97981.70;1794773;80;21127;-42
2021/04/06 01:00:19;;;;;;;17.15;10.08;;;;;;;4.09;56.03;97983.05;1794750;80;21120;-42
2021/04/06 01:03:16;;;;;;;13.00;9.45;;;;;;;4.06;56.12;97985.66;1794870;80;22286;-42
2021/04/06 01:06:07;;;;;;;14.80;9.90;;;;;;;4.03;56.18;97983.66;1794547;80;21131;-42
2021/04/06 01:08:38;;;;;;;12.33;9.63;;;;;;;3.98;56.21;97980.68;1794685;79;21169;-42
2021/04/06 01:11:08;;;;;;;15.75;9.70;;;;;;;4.00;56.25;97985.14;1744685;81;21162;-42
2021/04/06 01:13:36;;;;;;;13.53;9.50;;;;;;;4.04;56.23;97989.23;1780972;80;21142;-42
2021/04/06 01:16:06;;;;;;;16.87;10.50;;;;;;;4.06;56.18;97985.66;1804800;79;22031;-42
2021/04/06 01:18:34;;;;;;;13.22;9.28;;;;;;;4.09;56.13;97983.60;1775825;79;21163;-42
2021/04/06 01:21:12;;;;;;;15.80;10.55;;;;;;;4.11;56.14;97990.19;1775831;79;21183;-42
2021/04/06 01:23:40;;;;;;;14.07;10.48;;;;;;;4.14;56.01;97987.36;1803013;79;22003;-42
2021/04/06 01:26:12;;;;;;;14.80;10.35;;;;;;;4.13;56.00;97979.09;1770492;79;21168;-42
2021/04/06 01:28:41;;;;;;;15.83;10.28;;;;;;;4.15;56.00;97979.53;1801569;79;21373;-42
2021/04/06 01:31:09;;;;;;;17.30;10.78;;;;;;;4.14;55.91;97981.43;1801556;79;21163;-42
2021/04/06 01:33:37;;;;;;;14.47;9.60;;;;;;;4.15;55.87;97975.51;1745588;79;21147;-42
2021/04/06 01:36:08;;;;;;;19.23;10.25;;;;;;;4.15;55.88;97976.84;1765413;79;21662;-42
2021/04/06 01:38:39;;;;;;;15.48;10.55;;;;;;;4.12;55.87;97980.21;1801627;79;21112;-42
2021/04/06 01:41:06;;;;;;;16.87;10.38;;;;;;;4.13;55.92;97969.14;1771050;79;21272;-42
2021/04/06 01:43:40;;;;;;;13.93;9.48;;;;;;;4.10;55.97;97972.53;1801511;79;21602;-42
2021/04/06 01:46:16;;;;;;;15.40;10.70;;;;;;;4.10;56.02;97975.78;1801571;79;21628;-42
2021/04/06 01:48:42;;;;;;;15.93;10.55;;;;;;;4.08;56.05;97975.34;1801568;79;21178;-42
2021/04/06 01:51:15;;;;;;;16.05;11.53;;;;;;;4.02;56.15;97974.08;1801632;79;21127;-42
2021/04/06 01:53:42;;;;;;;17.98;10.60;;;;;;;4.00;56.30;97981.68;1771783;79;21308;-42
2021/04/06 01:56:14;;;;;;;14.87;10.32;;;;;;;3.93;56.44;97980.39;1801451;79;21598;-42
2021/04/06 01:58:48;;;;;;;14.95;10.60;;;;;;;3.89;56.63;97979.53;1801618;79;21155;-42
2021/04/06 02:01:21;;;;;;;15.93;10.78;;;;;;;3.87;56.76;97975.66;1801510;79;21147;-42
2021/04/06 02:03:56;;;;;;;14.58;9.58;;;;;;;3.84;56.90;97980.36;1801558;79;21122;-42
2021/04/06 02:06:26;;;;;;;20.32;11.00;;;;;;;3.82;57.03;97970.56;1801408;79;21200;-42
2021/04/06 02:08:55;;;;;;;15.75;10.08;;;;;;;3.85;57.11;97967.96;1798124;79;21173;-42
2021/04/06 02:11:26;;;;;;;17.92;10.70;;;;;;;3.87;57.05;97968.38;1777175;80;21163;-42
2021/04/06 02:14:11;;;;;;;16.97;11.48;;;;;;;3.88;57.12;97959.77;1777027;80;21600;-42
2021/04/06 02:17:04;;;;;;;18.55;10.98;;;;;;;3.85;57.31;97971.98;1782889;80;22109;-42
2021/04/06 02:19:40;;;;;;;15.70;10.53;;;;;;;3.81;57.50;97972.47;1782833;80;21400;-43
2021/04/06 02:22:13;;;;;;;18.50;11.20;;;;;;;3.76;57.58;97972.73;1782326;80;21154;-42
2021/04/06 02:24:50;;;;;;;18.25;10.78;;;;;;;3.74;57.76;97969.61;1771557;80;20981;-42
2021/04/06 02:27:32;;;;;;;14.53;10.30;;;;;;;3.75;57.75;97964.47;1767932;81;21142;-42
2021/04/06 02:30:05;;;;;;;15.43;10.75;;;;;;;3.77;57.81;97966.25;1744550;81;21131;-42
2021/04/06 02:32:35;;;;;;;14.98;9.95;;;;;;;3.82;57.76;97966.55;1781531;80;21283;-42
2021/04/06 02:35:11;;;;;;;15.15;10.23;;;;;;;3.86;57.67;97968.18;1781825;80;21151;-42
2021/04/06 02:37:44;;;;;;;15.83;10.88;;;;;;;3.92;57.59;97964.08;1756968;81;21691;-42
2021/04/06 02:40:15;;;;;;;19.65;11.40;;;;;;;3.98;57.51;97963.81;1769844;81;21135;-42
2021/04/06 02:42:46;;;;;;;15.98;10.18;;;;;;;4.00;57.36;97957.55;1769853;80;21529;-41
2021/04/06 02:45:28;;;;;;;15.93;9.85;;;;;;;4.03;57.28;97960.86;1770040;81;22789;-42
2021/04/06 02:48:05;;;;;;;18.27;10.60;;;;;;;4.02;57.26;97958.73;1769958;81;21159;-42
2021/04/06 02:50:34;;;;;;;14.80;9.95;;;;;;;4.06;57.21;97958.84;1769785;81;21621;-42
2021/04/06 02:53:08;;;;;;;15.45;10.60;;;;;;;4.09;57.20;97962.15;1769784;81;21151;-42
2021/04/06 02:55:37;;;;;;;14.83;10.32;;;;;;;4.11;57.15;97955.88;1769898;81;21526;-42
2021/04/06 02:58:16;;;;;;;15.13;10.13;;;;;;;4.12;57.27;97952.05;1769821;81;21273;-43
2021/04/06 03:00:44;;;;;;;16.20;10.03;;;;;;;4.10;57.26;97962.37;1769862;81;21167;-43
2021/04/06 03:03:24;;;;;;;17.90;10.98;;;;;;;4.10;57.36;97965.05;1769796;80;21182;-43
2021/04/06 03:06:04;;;;;;;13.72;9.85;;;;;;;4.11;57.27;97957.22;1768453;81;21146;-43
2021/04/06 03:08:32;;;;;;;;;;;;;;;4.08;57.37;97958.69;1773873;80;21577;-42
2021/04/06 03:11:01;;;;;;;17.42;10.03;;;;;;;4.08;57.39;97956.56;1777842;80;22281;-43
2021/04/06 03:13:29;;;;;;;17.60;11.15;;;;;;;3.98;57.57;97957.11;1761853;81;21126;-43
2021/04/06 03:15:57;;;;;;;17.45;10.55;;;;;;;4.02;57.57;97963.35;1777785;80;20933;-43
2021/04/06 03:18:33;;;;;;;16.67;10.72;;;;;;;4.04;57.47;97973.15;1761846;81;21133;-43
2021/04/06 03:21:04;;;;;;;16.37;10.78;;;;;;;4.06;57.51;97985.09;1777854;80;21147;-43
2021/04/06 03:23:33;;;;;;;17.98;11.75;;;;;;;4.05;57.56;97986.77;1780061;79;21386;-43
2021/04/06 03:26:04;;;;;;;15.83;10.58;;;;;;;4.02;57.79;97979.44;1795615;79;21137;-42
2021/04/06 03:28:36;;;;;;;;;;;;;;;3.96;57.93;97984.85;1798365;79;21581;-43
2021/04/06 03:31:15;;;;;;;17.70;10.32;;;;;;;3.90;58.07;97978.41;1795654;79;20224;-43
2021/04/06 03:33:46;;;;;;;19.92;12.05;;;;;;;3.78;58.39;97979.84;1794094;79;21159;-43
2021/04/06 03:36:23;;;;;;;18.77;11.12;;;;;;;3.77;58.50;97982.89;1816088;79;21198;-43
2021/04/06 03:38:56;;;;;;;19.32;10.23;;;;;;;3.76;58.61;97988.03;1814716;79;21154;-42
2021/04/06 03:41:25;;;;;;;17.32;11.65;;;;;;;3.74;58.71;97987.03;1824285;78;21138;-43
2021/04/06 03:44:12;;;;;;;17.10;11.05;;;;;;;3.75;58.79;97983.23;1795183;78;21015;-43
2021/04/06 03:46:41;;;;;;;16.52;11.35;;;;;;;3.74;58.81;97977.65;1785702;80;21190;-42
2021/04/06 03:49:22;;;;;;;19.90;11.22;;;;;;;3.73;58.83;97972.06;1796596;79;22300;-43
2021/04/06 03:52:07;;;;;;;18.23;11.53;;;;;;;3.75;58.88;97981.89;1796416;79;21641;-43
2021/04/06 03:54:39;;;;;;;20.23;11.00;;;;;;;3.73;58.90;97973.97;1796399;79;21173;-43
2021/04/06 04:00:13;;;;;;;18.75;11.40;;;;;;;3.75;59.01;97988.59;1882957;76;22671;-42
2021/04/06 04:02:41;;;;;;;;;;;;;;;3.71;59.10;97997.12;1839351;75;21322;-41
2021/04/06 04:05:11;;;;;;;16.48;10.65;;;;;;;3.72;59.17;98000.02;1855545;77;21192;-42
2021/04/06 04:07:39;;;;;;;17.75;10.65;;;;;;;3.65;59.40;98001.17;1782797;80;21023;-42
2021/04/06 04:10:11;;;;;;;11.43;8.08;;;;;;;3.70;59.34;97994.77;1765992;80;20987;-41
2021/04/06 04:12:40;;;;;;;16.82;10.53;;;;;;;3.74;59.30;97993.73;1784611;80;21522;-42
2021/04/06 04:15:09;;;;;;;17.50;11.25;;;;;;;3.79;59.25;97989.45;1784612;80;21030;-42
2021/04/06 04:17:37;;;;;;;14.43;11.10;;;;;;;3.85;59.16;97992.64;1784659;80;21195;-41
2021/04/06 04:20:10;;;;;;;17.35;10.63;;;;;;;3.87;59.03;97985.80;1784588;80;21063;-42
2021/04/06 04:22:38;;;;;;;20.55;12.05;;;;;;;3.89;59.01;97980.87;1784539;80;21113;-42
2021/04/06 04:25:09;;;;;;;16.80;10.55;;;;;;;3.94;58.98;97985.97;1784654;80;21579;-42
2021/04/06 04:27:37;;;;;;;;;;;;;;;4.02;58.77;97988.83;1787321;80;21209;-41
2021/04/06 04:30:07;;;;;;;15.10;10.40;;;;;;;4.07;58.74;97982.60;1784501;80;21195;-42
2021/04/06 04:32:37;;;;;;;15.30;10.50;;;;;;;4.02;58.73;97988.23;1784348;80;21126;-42
2021/04/06 04:35:06;;;;;;;16.55;10.88;;;;;;;4.08;58.64;97988.75;1784567;80;21099;-42
2021/04/06 04:37:35;;;;;;;17.48;11.18;;;;;;;4.14;58.51;97992.72;1784641;80;21571;-42
2021/04/06 04:40:07;;;;;;;17.32;10.45;;;;;;;4.19;58.35;97991.11;1784699;80;21552;-42
2021/04/06 04:42:37;;;;;;;18.52;10.38;;;;;;;4.22;58.38;97994.42;1784608;80;21187;-41
2021/04/06 04:45:09;;;;;;;19.27;10.53;;;;;;;4.27;58.25;97995.48;1784583;80;21110;-41
2021/04/06 04:47:36;;;;;;;14.55;10.38;;;;;;;4.34;58.05;97990.28;1784726;80;21534;-42
2021/04/06 04:50:06;;;;;;;18.35;11.53;;;;;;;4.41;57.96;97993.66;1784549;80;21146;-42
2021/04/06 04:52:34;;;;;;;17.07;11.40;;;;;;;4.47;57.89;97991.70;1784529;80;21122;-42
2021/04/06 04:55:03;;;;;;;19.52;11.65;;;;;;;4.54;57.63;97996.45;1784468;80;21415;-42
2021/04/06 04:57:31;;;;;;;19.32;12.18;;;;;;;4.55;57.50;97998.77;1784438;80;21743;-42
2021/04/06 04:59:59;;;;;;;15.53;10.80;;;;;;;4.57;57.51;97996.52;1784429;80;21407;-42
2021/04/06 05:02:27;;;;;;;18.23;11.20;;;;;;;4.24;57.49;97944.67;1784495;80;21150;-42
2021/04/06 05:04:55;;;;;;;17.73;11.40;;;;;;;4.65;57.49;98004.13;1784465;80;21126;-42
2021/04/06 05:07:23;;;;;;;18.95;11.50;;;;;;;4.68;57.39;98004.23;1784581;79;21199;-42
2021/04/06 05:09:51;;;;;;;17.90;11.57;;;;;;;4.73;57.39;98003.95;1784269;79;21165;-42
2021/04/06 05:12:19;;;;;;;15.45;10.45;;;;;;;4.80;57.19;97998.70;1779392;79;21020;-42
2021/04/06 05:14:49;;;;;;;17.32;10.58;;;;;;;4.86;57.03;98001.88;1784122;80;21199;-42
2021/04/06 05:17:17;;;;;;;16.25;9.85;;;;;;;4.91;56.95;98004.28;1784047;80;21161;-42
2021/04/06 05:19:45;;;;;;;15.10;11.00;;;;;;;4.94;56.69;97997.44;1783837;80;21239;-42
2021/04/06 05:22:16;;;;;;;14.10;10.30;;;;;;;4.98;56.66;97996.94;1783883;80;21181;-42
2021/04/06 05:24:44;;;;;;;16.17;10.70;;;;;;;5.01;56.53;97999.68;1784081;80;20988;-42
2021/04/06 05:27:12;;;;;;;16.82;10.60;;;;;;;5.05;56.72;97995.14;1783930;80;21062;-41
2021/04/06 05:29:41;;;;;;;14.05;10.08;;;;;;;5.12;56.56;97988.58;1783827;80;21110;-42
2021/04/06 05:32:09;;;;;;;17.05;11.03;;;;;;;5.22;56.16;97996.05;1783993;80;21212;-41
2021/04/06 05:34:37;;;;;;;16.93;10.43;;;;;;;5.31;56.11;97998.50;1783953;80;21576;-42
2021/04/06 05:37:05;;;;;;;19.90;10.28;;;;;;;5.40;55.99;97997.69;1783897;80;20983;-42
2021/04/06 05:39:33;;;;;;;16.40;10.95;;;;;;;5.54;55.76;98006.00;1783815;80;21560;-42
2021/04/06 05:42:06;;;;;;;17.00;10.40;;;;;;;5.67;55.36;98007.92;1783930;80;21135;-42
2021/04/06 05:44:34;;;;;;;13.93;7.92;;;;;;;5.79;54.94;98013.69;1784002;80;21363;-41
2021/04/06 05:47:03;;;;;;;15.60;11.05;;;;;;;5.86;54.60;98008.41;1783922;80;21177;-43
2021/04/06 05:49:32;;;;;;;16.87;10.33;;;;;;;5.88;54.21;98020.41;1784252;80;21612;-43
2021/04/06 05:52:01;;;;;;;19.87;11.20;;;;;;;5.89;53.99;98025.22;1784170;80;21107;-42
2021/04/06 05:54:30;;;;;;;20.12;10.60;;;;;;;5.92;54.39;98024.48;1783973;80;21142;-42
2021/04/06 05:56:59;;;;;;;13.93;10.18;;;;;;;5.95;54.46;98010.33;1783867;80;21352;-43
2021/04/06 05:59:27;;;;;;;14.87;10.38;;;;;;;6.02;54.47;98013.11;1780652;80;21000;-42
2021/04/06 06:01:55;;;;;;;15.25;11.00;;;;;;;6.08;54.07;98013.02;1751712;81;21110;-42
2021/04/06 06:04:22;;;;;;;15.28;10.43;;;;;;;6.15;54.01;98016.39;1784612;80;21643;-43
2021/04/06 06:06:50;;;;;;;16.73;10.20;;;;;;;6.20;54.21;98018.18;1784554;80;21114;-42
2021/04/06 06:09:35;;;;;;;16.15;9.50;;;;;;;6.27;54.14;98016.95;1752667;81;21390;-42
2021/04/06 06:12:09;;;;;;;15.20;10.05;;;;;;;6.36;53.97;98013.42;1784280;80;21153;-42
2021/04/06 06:14:43;;;;;;;15.45;10.00;;;;;;;6.47;53.60;98021.08;1784545;80;21606;-43
2021/04/06 06:17:27;;;;;;;13.70;9.95;;;;;;;6.54;53.42;98017.12;1784428;80;21175;-43
2021/04/06 06:19:57;;;;;;;14.83;10.03;;;;;;;6.60;53.13;98026.22;1784610;80;21579;-42
2021/04/06 06:22:27;;;;;;;14.73;10.10;;;;;;;6.64;52.61;98029.16;1784465;80;21789;-42
2021/04/06 06:25:11;;;;;;;18.82;10.95;;;;;;;6.70;52.66;98026.94;1784504;80;21176;-43
2021/04/06 06:27:46;;;;;;;14.80;10.03;;;;;;;6.77;52.86;98023.77;1784500;80;21191;-42
2021/04/06 06:30:33;;;;;;;16.00;10.40;;;;;;;6.88;52.19;98030.61;1784419;80;21167;-42
2021/04/06 06:33:24;;;;;;;17.02;11.10;;;;;;;6.97;51.92;98029.78;1784427;80;21136;-43
2021/04/06 06:35:59;;;;;;;15.30;10.00;;;;;;;7.04;51.92;98023.68;1784438;80;21708;-43
2021/04/06 06:38:35;;;;;;;17.32;10.00;;;;;;;7.13;51.62;98031.68;1784295;80;21175;-43
2021/04/06 06:41:20;;;;;;;14.05;9.63;;;;;;;7.25;51.16;98023.92;1784457;80;21163;-43
2021/04/06 06:43:51;;;;;;;14.07;8.83;;;;;;;7.36;50.77;98034.22;1784459;80;21172;-43
2021/04/06 06:46:35;;;;;;;15.18;9.10;;;;;;;7.47;50.20;98037.81;1784467;80;21551;-43
2021/04/06 06:49:06;;;;;;;17.85;9.23;;;;;;;7.56;49.42;98030.75;1779914;80;21393;-43
2021/04/06 06:51:40;;;;;;;14.85;9.85;;;;;;;7.64;48.70;98031.82;1784312;80;21453;-43
2021/04/06 06:54:09;;;;;;;16.93;9.85;;;;;;;7.77;49.18;98045.22;1784548;80;21555;-43
2021/04/06 06:56:40;;;;;;;17.17;9.98;;;;;;;7.86;47.90;98040.28;1784348;80;21187;-43
2021/04/06 06:59:09;;;;;;;14.85;9.55;;;;;;;7.94;47.80;98048.45;1779076;80;21231;-44
2021/04/06 07:01:38;;;;;;;;;;;;;;;8.03;48.30;98048.33;1754918;81;22377;-43
2021/04/06 07:04:12;;;;;;;13.93;9.70;;;;;;;8.12;47.65;98051.48;1739250;81;20293;-43
2021/04/06 07:06:46;;;;;;;16.45;9.70;;;;;;;8.11;47.62;98043.18;1767965;81;21707;-43
2021/04/06 07:09:29;;;;;;;14.18;9.95;;;;;;;8.23;47.64;98052.89;1755273;81;21611;-43
2021/04/06 07:11:59;;;;;;;15.63;8.93;;;;;;;8.37;46.92;98048.99;1739350;82;21536;-43
2021/04/06 07:14:29;;;;;;;13.13;9.08;;;;;;;8.55;46.51;98047.73;1739208;82;21454;-43
2021/04/06 07:17:03;;;;;;;17.17;9.35;;;;;;;8.69;46.07;98045.89;1739167;82;21644;-43
2021/04/06 07:19:41;;;;;;;14.18;8.70;;;;;;;8.81;45.33;98043.41;1739202;81;21156;-43
2021/04/06 07:22:12;;;;;;;12.35;8.80;;;;;;;8.62;45.37;97999.91;1739302;82;21612;-43
2021/04/06 07:24:42;;;;;;;13.15;8.58;;;;;;;9.02;45.27;98046.80;1710903;82;21117;-43
2021/04/06 07:27:13;;;;;;;14.25;9.65;;;;;;;9.14;45.06;98045.11;1739182;82;21383;-43
2021/04/06 07:29:41;;;;;;;14.15;9.35;;;;;;;9.32;45.08;98042.45;1739223;82;21149;-43
2021/04/06 07:32:14;;;;;;;15.10;9.98;;;;;;;9.51;44.46;98042.88;1739678;82;21596;-43
2021/04/06 07:34:43;;;;;;;15.05;9.00;;;;;;;9.72;43.81;98040.80;1739191;82;21421;-43
2021/04/06 07:37:12;;;;;;;13.55;9.55;;;;;;;9.89;43.94;98045.43;1739275;82;21166;-43
2021/04/06 07:39:41;;;;;;;13.08;8.43;;;;;;;10.11;43.34;98040.02;1739254;82;21277;-43
2021/04/06 07:42:11;;;;;;;13.60;8.98;;;;;;;10.29;41.86;98035.39;1739247;82;21627;-43
2021/04/06 07:44:39;;;;;;;10.93;8.55;;;;;;;10.43;42.12;98035.36;1739551;82;22185;-43
2021/04/06 07:47:07;;;;;;;12.63;9.05;;;;;;;10.59;41.78;98035.72;1734385;81;22153;-43
2021/04/06 07:49:37;;;;;;;12.73;8.55;;;;;;;10.72;41.73;98038.20;1739186;82;21173;-43
2021/04/06 07:52:19;;;;;;;11.70;8.40;;;;;;;10.87;41.43;98045.13;1739376;82;21169;-43
2021/04/06 07:54:49;;;;;;;12.80;8.95;;;;;;;11.01;40.68;98044.29;1738872;82;21150;-43
2021/04/06 07:57:17;;;;;;;11.63;8.60;;;;;;;11.11;40.61;98051.61;1739137;82;21146;-43
2021/04/06 07:59:52;;;;;;;14.58;9.23;;;;;;;11.20;40.66;98044.39;1746118;81;21156;-43
2021/04/06 08:02:22;;;;;;;12.45;8.58;;;;;;;11.34;40.46;98051.88;1764349;81;21161;-43
2021/04/06 08:04:56;;;;;;;14.07;9.03;;;;;;;11.48;40.45;98046.95;1764415;81;21368;-43
2021/04/06 08:07:34;;;;;;;11.48;8.10;;;;;;;11.55;40.05;98044.21;1764449;81;21627;-43
2021/04/06 08:10:29;;;;;;;12.47;9.33;;;;;;;11.67;39.85;98051.88;1739895;81;21190;-44
2021/04/06 08:13:00;;;;;;;12.28;9.65;;;;;;;11.84;39.36;98043.46;1733999;82;21165;-43
2021/04/06 08:15:32;;;;;;;11.97;8.75;;;;;;;12.04;39.03;98040.39;1709692;82;21201;-44
2021/04/06 08:18:01;;;;;;;13.20;9.20;;;;;;;12.20;39.22;98039.27;1734012;82;21399;-43
2021/04/06 08:20:41;;;;;;;13.08;9.30;;;;;;;12.38;38.36;98042.42;1733913;82;21150;-43
2021/04/06 08:23:12;;;;;;;13.03;8.50;;;;;;;12.52;37.80;98048.50;1734216;82;21145;-43
2021/04/06 08:25:45;;;;;;;13.62;8.60;;;;;;;12.74;37.73;98044.17;1733879;82;21046;-43
2021/04/06 08:28:36;;;;;;;12.75;8.75;;;;;;;12.92;37.08;98039.33;1734167;82;21608;-43
2021/04/06 08:31:28;;;;;;;11.73;8.00;;;;;;;12.97;36.54;98037.52;1733995;82;21197;-44
2021/04/06 08:34:26;;;;;;;9.93;8.35;;;;;;;12.93;37.04;98044.92;1733994;82;21157;-43
2021/04/06 08:37:14;;;;;;;13.08;8.15;;;;;;;12.89;37.09;98042.26;1734117;82;21596;-43
2021/04/06 08:40:47;;;;;;;13.03;9.50;;;;;;;13.02;36.83;98037.08;1846712;76;22768;-42
2021/04/06 08:43:18;;;;;;;12.68;8.48;;;;;;;13.01;36.48;98039.61;1816806;78;20955;-42
2021/04/06 08:45:58;;;;;;;12.47;9.40;;;;;;;13.12;36.72;98040.88;1816894;79;22414;-42
2021/04/06 08:48:50;;;;;;;11.05;8.53;;;;;;;13.27;36.21;98045.70;1816713;79;20964;-43
2021/04/06 08:51:30;;;;;;;14.00;9.05;;;;;;;13.42;36.27;98040.84;1816749;78;21019;-43
2021/04/06 08:54:00;;;;;;;12.07;7.92;;;;;;;13.61;35.91;98035.32;1817030;79;22239;-42
2021/04/06 08:56:35;;;;;;;11.93;8.23;;;;;;;13.78;35.37;98035.66;1816884;78;20988;-42
2021/04/06 08:59:30;;;;;;;11.43;8.28;;;;;;;13.90;35.08;98031.76;1816734;79;21747;-42
2021/04/06 09:02:14;;;;;;;11.93;8.70;;;;;;;13.99;34.89;98038.03;1816476;79;21541;-42
2021/04/06 09:04:50;;;;;;;12.82;9.88;;;;;;;14.00;34.91;98024.59;1816798;79;21012;-42
2021/04/06 09:07:44;;;;;;;11.43;8.60;;;;;;;13.99;34.46;98018.97;1869452;75;22753;-43
2021/04/06 09:10:13;;;;;;;12.70;8.40;;;;;;;13.98;34.88;98025.63;1814163;77;21624;-43
2021/04/06 09:12:43;;;;;;;11.15;8.60;;;;;;;14.04;34.28;98023.20;1828276;78;21205;-43
2021/04/06 09:15:13;;;;;;;;;;;;;;;14.03;34.12;98030.60;1816355;78;21189;-43
2021/04/06 09:17:41;;;;;;;16.77;9.07;;;;;;;13.98;34.50;98018.81;1808055;78;20501;-43
2021/04/06 09:20:12;;;;;;;11.15;8.70;;;;;;;13.87;34.20;98023.65;1807314;78;20945;-43
2021/04/06 09:22:42;;;;;;;12.53;9.30;;;;;;;13.83;34.47;98020.22;1805238;78;20990;-43
2021/04/06 09:25:22;;;;;;;9.77;6.90;;;;;;;13.76;34.67;98010.78;1805895;78;21367;-43
2021/04/06 09:28:01;;;;;;;11.68;8.80;;;;;;;13.71;34.88;98017.47;1826641;78;21015;-43
2021/04/06 09:30:35;;;;;;;18.30;11.55;;;;;;;13.62;34.96;98025.39;1825602;78;21150;-43
2021/04/06 09:33:14;;;;;;;20.23;13.62;;;;;;;13.55;34.92;98016.56;1825529;78;21146;-43
2021/04/06 09:35:49;;;;;;;19.92;12.30;;;;;;;13.56;34.67;98018.86;1797682;78;21213;-43
2021/04/06 09:38:21;;;;;;;14.23;10.93;;;;;;;13.64;35.28;98018.17;1814692;78;21141;-42
2021/04/06 09:40:49;;;;;;;16.52;11.48;;;;;;;13.72;35.92;98025.05;1819560;78;21130;-42
2021/04/06 09:43:17;;;;;;;15.32;11.80;;;;;;;13.72;35.41;98021.73;1810631;78;21153;-42
2021/04/06 09:45:49;;;;;;;12.98;8.60;;;;;;;13.66;35.43;98024.73;1821824;78;21100;-43
2021/04/06 09:48:20;;;;;;;13.10;8.55;;;;;;;13.63;35.36;98031.61;1819809;78;22071;-43
2021/04/06 09:51:05;;;;;;;11.12;8.63;;;;;;;13.60;34.45;98029.72;1815957;78;21360;-43
2021/04/06 09:53:37;;;;;;;13.70;10.08;;;;;;;13.60;34.82;98029.72;1818411;78;21166;-43
2021/04/06 09:56:10;;;;;;;12.63;9.88;;;;;;;13.63;34.79;98032.97;1820347;78;21160;-42
2021/04/06 09:58:38;;;;;;;12.07;9.10;;;;;;;13.64;34.79;98031.80;1823818;78;21213;-43
2021/04/06 10:01:24;;;;;;;12.28;9.10;;;;;;;13.67;34.98;98025.52;1822741;78;21201;-43
2021/04/06 10:03:58;;;;;;;12.47;9.40;;;;;;;13.72;35.20;98023.69;1807323;78;21537;-43
2021/04/06 10:06:40;;;;;;;12.05;8.40;;;;;;;13.78;34.88;98020.09;1814750;78;21922;-43
2021/04/06 10:09:29;;;;;;;12.60;8.40;;;;;;;13.87;34.44;98022.29;1821511;77;21580;-43
2021/04/06 10:11:57;;;;;;;13.55;8.50;;;;;;;13.96;34.63;98017.67;1821446;78;21123;-42
2021/04/06 10:14:25;;;;;;;10.68;8.20;;;;;;;14.10;34.49;98014.12;1835578;77;22219;-42
2021/04/06 10:17:08;;;;;;;10.80;8.03;;;;;;;14.28;33.81;98012.47;1828931;77;21339;-43
2021/04/06 10:19:42;;;;;;;11.05;7.45;;;;;;;14.43;33.51;98019.80;1832947;77;21161;-43
2021/04/06 10:22:14;;;;;;;13.55;7.70;;;;;;;14.53;33.74;98014.16;1836447;77;21113;-43
2021/04/06 10:24:45;;;;;;;12.13;8.25;;;;;;;14.67;33.17;98011.75;1825859;77;21164;-43
2021/04/06 10:27:40;;;;;;;10.82;8.90;;;;;;;14.84;32.63;98009.29;1836448;77;21145;-43
2021/04/06 10:30:15;;;;;;;13.08;9.35;;;;;;;14.98;32.82;97998.08;1841541;77;21271;-43
2021/04/06 10:32:48;;;;;;;11.43;8.90;;;;;;;15.21;32.37;98010.27;1843080;77;21553;-43
2021/04/06 10:35:29;;;;;;;11.80;8.63;;;;;;;15.42;32.30;98000.08;1858280;77;21616;-43
2021/04/06 10:38:02;;;;;;;12.78;8.88;;;;;;;15.69;31.78;97999.27;1847111;77;21419;-43
2021/04/06 10:40:37;;;;;;;13.80;8.73;;;;;;;15.93;31.21;97995.17;1838562;77;21157;-43
2021/04/06 10:43:11;;;;;;;12.40;8.25;;;;;;;15.91;31.03;97994.85;1819365;77;22319;-43
2021/04/06 10:45:47;;;;;;;11.43;8.85;;;;;;;15.84;31.50;97994.23;1843904;76;21169;-43
2021/04/06 10:48:19;;;;;;;15.78;9.08;;;;;;;15.99;31.51;97998.94;1836843;76;21080;-43
2021/04/06 10:51:01;;;;;;;14.38;9.60;;;;;;;16.22;30.77;97998.56;1838673;76;21600;-44
2021/04/06 10:53:33;;;;;;;9.88;8.08;;;;;;;16.39;30.08;98003.59;1834457;76;21172;-43
2021/04/06 10:56:24;;;;;;;10.53;8.58;;;;;;;16.53;30.38;98002.44;1833120;76;21270;-43
2021/04/06 10:59:03;;;;;;;9.98;7.95;;;;;;;16.50;30.10;97991.78;1808423;78;22763;-43
2021/04/06 11:01:48;;;;;;;11.57;8.00;;;;;;;16.32;30.25;97986.58;1802649;79;21039;-43
2021/04/06 11:04:23;;;;;;;9.63;7.53;;;;;;;16.27;31.19;97983.77;1788987;79;21310;-43
2021/04/06 11:07:03;;;;;;;11.65;7.80;;;;;;;16.13;30.52;97983.37;1787504;79;21043;-43
2021/04/06 11:09:42;;;;;;;10.03;7.90;;;;;;;15.87;31.05;97985.20;1797070;78;21587;-43
2021/04/06 11:12:12;;;;;;;10.88;8.05;;;;;;;15.53;31.27;97986.98;1807781;79;21008;-43
2021/04/06 11:14:41;;;;;;;10.10;7.62;;;;;;;15.12;31.55;97992.33;1783676;80;21043;-43
2021/04/06 11:17:10;;;;;;;11.22;7.72;;;;;;;14.86;31.90;97993.88;1783081;79;21168;-43
2021/04/06 11:19:44;;;;;;;14.85;9.03;;;;;;;14.74;32.25;97995.27;1783905;80;21120;-43
2021/04/06 11:22:17;;;;;;;10.63;8.48;;;;;;;14.65;32.58;97995.83;1783960;80;21015;-43
2021/04/06 11:24:48;;;;;;;9.28;7.85;;;;;;;14.52;32.90;97991.41;1791787;79;21676;-43
2021/04/06 11:27:21;;;;;;;9.95;7.58;;;;;;;14.39;32.96;97987.16;1803557;79;21095;-43
2021/04/06 11:29:48;;;;;;;9.65;8.10;;;;;;;14.27;32.92;97989.89;1783930;80;21196;-43
2021/04/06 11:32:19;;;;;;;12.47;8.80;;;;;;;14.16;33.58;97987.16;1784052;80;21206;-43
2021/04/06 11:34:47;;;;;;;11.38;8.63;;;;;;;14.00;34.00;97982.36;1784111;80;22029;-43
2021/04/06 11:37:15;;;;;;;12.47;8.48;;;;;;;13.90;34.11;97980.58;1783862;80;21451;-43
2021/04/06 11:39:46;;;;;;;11.00;8.10;;;;;;;13.80;33.86;97976.08;1784014;80;21158;-43
2021/04/06 11:42:16;;;;;;;14.00;9.68;;;;;;;13.72;34.41;97970.58;1784023;80;21196;-43
2021/04/06 11:44:45;;;;;;;14.80;9.00;;;;;;;13.65;34.39;97966.63;1783925;80;21576;-43
2021/04/06 11:47:13;;;;;;;14.58;8.95;;;;;;;13.60;34.67;97967.86;1783957;80;21011;-43
2021/04/06 11:49:41;;;;;;;12.85;8.40;;;;;;;13.54;34.69;97961.34;1784047;80;21177;-43
2021/04/06 11:52:09;;;;;;;14.70;9.25;;;;;;;13.51;34.87;97955.33;1783935;80;21153;-42
2021/04/06 11:54:41;;;;;;;12.03;9.48;;;;;;;13.49;35.90;97963.94;1784032;80;21584;-43
2021/04/06 11:57:09;;;;;;;13.43;9.33;;;;;;;13.52;35.72;97967.00;1782549;80;20980;-42
2021/04/06 11:59:37;;;;;;;14.20;9.13;;;;;;;13.53;35.96;97961.73;1773123;80;21020;-43
2021/04/06 12:02:05;;;;;;;13.90;9.28;;;;;;;13.53;35.84;97956.30;1773207;80;21162;-43